Terminal Aerodrome Forecast
Issued by NWS New Orleans/Baton Rouge, LA

Home | Current Version | Previous Version | Text Only | Print | Product List | Glossary On
Versions: 1 2 3 4 5 6 7 8 9 10 11 12
000
FTUS44 KLIX 261100 RRA
TAFBTR
TAF
KBTR 261140Z 2612/2712 09005KT P6SM SCT027 BKN035
      TEMPO 2613/2617 BKN027
     FM261700 13006KT P6SM BKN025
     FM270000 11010KT P6SM VCSH BKN025
     FM270500 11009KT 5SM -SHRA BR OVC017
     FM271000 11008KT 3SM SHRA BR OVC008=

USA.gov is the U.S. government's official web portal to all federal, state and local government web resources and services.